Time;durP1;ratioP1;P1;durP2;ratioP2;P2;SDS_P1;SDS_P2;PMS_P1;PMS_P2;Temp;Humidity;BMP_temperature;BMP_pressure;BME280_temperature;BME280_humidity;BME280_pressure;Samples;Min_cycle;Max_cycle;Signal;HPM_P1;HPM_P2
2024/01/10 00:01:26;;;;;;;29.13;15.50;;;-2.50;99.90;;;;;;5052410;28;20845;-80
2024/01/10 00:03:53;;;;;;;32.63;17.83;;;-2.90;99.90;;;;;;5052178;28;20094;-79
2024/01/10 00:06:19;;;;;;;32.92;18.27;;;-2.90;99.90;;;;;;5051702;28;20045;-83
2024/01/10 00:08:45;;;;;;;29.70;16.30;;;-2.90;99.90;;;;;;5057122;28;20411;-82
2024/01/10 00:11:11;;;;;;;30.95;16.70;;;-1.80;99.90;;;;;;5056648;28;20131;-81
2024/01/10 00:13:37;;;;;;;36.80;18.20;;;-3.00;99.90;;;;;;5059554;28;20041;-80
2024/01/10 00:16:02;;;;;;;35.05;18.67;;;-3.00;99.90;;;;;;5058874;28;20459;-80
2024/01/10 00:18:28;;;;;;;28.85;16.65;;;-3.00;99.90;;;;;;5059753;28;20047;-81
2024/01/10 00:20:54;;;;;;;34.33;17.33;;;-3.00;99.90;;;;;;5057984;28;20040;-83
2024/01/10 00:23:21;;;;;;;28.30;15.68;;;-3.00;99.90;;;;;;5057773;28;20049;-80
2024/01/10 00:25:47;;;;;;;31.95;17.15;;;-1.90;99.90;;;;;;5061101;28;20129;-80
2024/01/10 00:28:13;;;;;;;30.33;17.10;;;-3.00;99.90;;;;;;5061200;28;20124;-80
2024/01/10 00:30:39;;;;;;;32.78;18.00;;;-3.00;99.90;;;;;;5059696;28;20183;-80
2024/01/10 00:33:05;;;;;;;34.92;19.38;;;-1.90;99.90;;;;;;5054488;28;20580;-80
2024/01/10 00:35:31;;;;;;;31.80;17.75;;;-2.60;99.90;;;;;;5067692;28;20066;-80
2024/01/10 00:37:57;;;;;;;25.60;14.95;;;-3.00;99.90;;;;;;5058312;28;20041;-80
2024/01/10 00:40:23;;;;;;;34.38;17.85;;;-3.00;99.90;;;;;;5053069;28;20040;-80
2024/01/10 00:42:49;;;;;;;29.50;15.82;;;-3.00;99.90;;;;;;5052829;28;20041;-79
2024/01/10 00:45:16;;;;;;;28.55;15.98;;;-3.10;99.90;;;;;;5067772;28;20427;-81
2024/01/10 00:47:41;;;;;;;34.45;19.15;;;-3.10;99.90;;;;;;5066320;28;20048;-80
2024/01/10 00:50:08;;;;;;;31.23;17.17;;;-3.10;99.90;;;;;;5062312;28;20049;-79
2024/01/10 00:52:33;;;;;;;33.83;18.20;;;-3.10;99.90;;;;;;5069546;28;20048;-79
2024/01/10 00:54:59;;;;;;;33.72;18.30;;;-3.10;99.90;;;;;;5060026;28;20049;-81
2024/01/10 00:57:25;;;;;;;31.52;16.88;;;-3.20;99.90;;;;;;5054926;28;20048;-79
2024/01/10 00:59:50;;;;;;;29.50;15.93;;;-3.20;99.90;;;;;;5053971;28;20056;-80
2024/01/10 01:02:16;;;;;;;29.55;16.55;;;-3.20;99.90;;;;;;5053202;28;20069;-80
2024/01/10 01:04:42;;;;;;;35.55;17.40;;;-3.10;99.90;;;;;;5056505;28;20049;-80
2024/01/10 01:07:07;;;;;;;32.65;16.23;;;-3.10;99.90;;;;;;5061877;28;20036;-80
2024/01/10 01:09:34;;;;;;;30.90;16.23;;;-3.10;99.90;;;;;;5055762;28;20041;-80
2024/01/10 01:12:00;;;;;;;28.15;15.70;;;-3.20;99.90;;;;;;5059351;28;20428;-80
2024/01/10 01:14:25;;;;;;;27.77;16.17;;;-1.80;99.90;;;;;;5065727;28;20049;-82
2024/01/10 01:16:51;;;;;;;32.83;16.20;;;-3.20;99.90;;;;;;5058702;28;20477;-81
2024/01/10 01:19:17;;;;;;;28.73;15.85;;;-3.20;99.90;;;;;;5052201;28;20044;-82
2024/01/10 01:21:43;;;;;;;28.20;15.02;;;-3.10;99.90;;;;;;5061213;28;20053;-80
2024/01/10 01:24:08;;;;;;;25.17;14.77;;;-3.20;99.90;;;;;;5057023;28;20396;-79
2024/01/10 01:26:34;;;;;;;26.88;14.65;;;-3.20;99.90;;;;;;5055420;28;20044;-81
2024/01/10 01:29:00;;;;;;;25.98;15.30;;;-3.20;99.90;;;;;;5054497;28;20574;-79
2024/01/10 01:31:25;;;;;;;27.63;14.90;;;-3.20;99.90;;;;;;5063291;28;20453;-79
2024/01/10 01:33:51;;;;;;;26.88;15.40;;;-3.20;99.90;;;;;;5061426;28;20098;-81
2024/01/10 01:36:17;;;;;;;29.77;14.85;;;-3.20;99.90;;;;;;5063076;28;20394;-80
2024/01/10 01:38:43;;;;;;;28.48;15.10;;;-3.20;99.90;;;;;;5068067;28;20412;-80
2024/01/10 01:41:09;;;;;;;27.60;13.88;;;-3.20;99.90;;;;;;5055127;28;20047;-79
2024/01/10 01:43:35;;;;;;;29.02;15.57;;;-3.20;99.90;;;;;;5060270;28;20443;-80
2024/01/10 01:46:01;;;;;;;25.40;13.98;;;-3.20;99.90;;;;;;5053956;28;20037;-80
2024/01/10 01:48:27;;;;;;;28.10;15.43;;;-3.30;99.90;;;;;;5053520;28;20503;-79
2024/01/10 01:50:56;;;;;;;25.02;13.98;;;-3.30;99.90;;;;;;5060249;28;20037;-79
2024/01/10 01:53:23;;;;;;;29.38;14.73;;;-3.30;99.90;;;;;;5052250;28;20044;-79
2024/01/10 01:55:49;;;;;;;28.63;15.02;;;-3.30;99.90;;;;;;5055651;28;20055;-79
2024/01/10 01:58:15;;;;;;;29.98;15.60;;;-2.70;99.90;;;;;;5061097;28;20510;-79
2024/01/10 02:00:43;;;;;;;28.02;15.48;;;-3.30;99.90;;;;;;5053311;28;20052;-81
2024/01/10 02:03:09;;;;;;;33.10;16.23;;;-3.30;99.90;;;;;;5060009;28;20056;-79
2024/01/10 02:05:36;;;;;;;30.15;17.42;;;-3.30;99.90;;;;;;5060895;28;20049;-80
2024/01/10 02:08:02;;;;;;;26.65;16.58;;;-3.30;99.90;;;;;;5060842;28;20048;-80
2024/01/10 02:10:28;;;;;;;30.35;17.33;;;-3.40;99.90;;;;;;5054905;28;20041;-79
2024/01/10 02:12:53;;;;;;;28.58;16.02;;;-3.40;99.90;;;;;;5054426;28;20087;-80
2024/01/10 02:15:19;;;;;;;28.70;16.35;;;-3.40;99.90;;;;;;5044369;28;20058;-80
2024/01/10 02:17:45;;;;;;;34.20;16.67;;;-3.40;99.90;;;;;;5059802;28;20033;-80
2024/01/10 02:20:13;;;;;;;28.63;16.70;;;-3.40;99.90;;;;;;5059981;28;20061;-84
2024/01/10 02:22:39;;;;;;;29.00;16.00;;;-3.40;99.90;;;;;;5042211;28;20052;-81
2024/01/10 02:25:07;;;;;;;31.35;17.98;;;-3.30;99.90;;;;;;5054622;28;20602;-79
2024/01/10 02:27:37;;;;;;;34.45;16.90;;;-3.40;99.90;;;;;;5055879;28;20063;-80
2024/01/10 02:30:04;;;;;;;30.85;17.60;;;-3.40;99.90;;;;;;5065247;28;20052;-79
2024/01/10 02:32:30;;;;;;;32.70;17.23;;;-3.40;99.90;;;;;;5052735;28;20049;-79
2024/01/10 02:34:56;;;;;;;31.60;16.48;;;-2.50;99.90;;;;;;5059515;28;20124;-80
2024/01/10 02:37:22;;;;;;;31.45;17.88;;;-3.40;99.90;;;;;;5051112;28;20191;-81
2024/01/10 02:39:47;;;;;;;31.92;16.70;;;-3.40;99.90;;;;;;5050373;28;20099;-80
2024/01/10 02:42:16;;;;;;;34.85;17.73;;;-3.40;99.90;;;;;;5040298;28;20044;-79
2024/01/10 02:44:42;;;;;;;35.70;18.67;;;-3.40;99.90;;;;;;5062129;28;20047;-80
2024/01/10 02:47:09;;;;;;;32.05;16.63;;;-3.40;99.90;;;;;;5068706;28;20045;-79
2024/01/10 02:49:34;;;;;;;29.17;16.65;;;-2.50;99.90;;;;;;5032020;28;20040;-80
2024/01/10 02:52:01;;;;;;;31.23;17.85;;;-3.20;99.90;;;;;;5057037;28;20527;-80
2024/01/10 02:54:26;;;;;;;37.92;17.73;;;-3.40;99.90;;;;;;5054924;28;20059;-80
2024/01/10 02:56:52;;;;;;;29.33;16.55;;;-3.40;99.90;;;;;;5050328;28;20053;-80
2024/01/10 02:59:18;;;;;;;30.13;16.10;;;-3.40;99.90;;;;;;5055845;28;20051;-79
2024/01/10 03:01:44;;;;;;;32.75;17.48;;;-3.40;99.90;;;;;;5058034;28;20148;-80
2024/01/10 03:04:09;;;;;;;30.35;16.25;;;-3.40;99.90;;;;;;5052545;28;20053;-80
2024/01/10 03:06:35;;;;;;;30.10;16.73;;;-3.40;99.90;;;;;;5063237;28;20052;-80
2024/01/10 03:09:02;;;;;;;32.80;17.30;;;-3.40;99.90;;;;;;5061835;28;20045;-81
2024/01/10 03:11:27;;;;;;;31.63;18.20;;;-3.40;99.90;;;;;;5050199;28;20044;-79
2024/01/10 03:14:06;;;;;;;27.92;15.38;;;-3.40;99.90;;;;;;5061102;28;20429;-79
2024/01/10 03:16:32;;;;;;;31.17;17.63;;;-3.40;99.90;;;;;;5052501;28;20133;-80
2024/01/10 03:18:58;;;;;;;33.35;17.58;;;-3.40;99.90;;;;;;5050185;28;20136;-80
2024/01/10 03:21:26;;;;;;;29.67;16.48;;;-2.90;99.90;;;;;;5044130;28;20088;-80
2024/01/10 03:23:59;;;;;;;29.67;17.10;;;-3.40;99.90;;;;;;5064719;28;20055;-80
2024/01/10 03:26:26;;;;;;;27.70;16.42;;;-3.40;99.90;;;;;;5066359;28;20061;-80
2024/01/10 03:28:52;;;;;;;31.23;17.88;;;-3.40;99.90;;;;;;5051330;28;20395;-79
2024/01/10 03:31:18;;;;;;;28.25;16.77;;;-3.40;99.90;;;;;;5065805;28;20120;-79
2024/01/10 03:33:43;;;;;;;29.92;17.10;;;-2.60;99.90;;;;;;5056430;28;20110;-79
2024/01/10 03:36:12;;;;;;;30.63;17.13;;;-3.40;99.90;;;;;;5054967;28;20080;-79
2024/01/10 03:38:38;;;;;;;28.08;16.33;;;-3.50;99.90;;;;;;5066046;28;20319;-81
2024/01/10 03:41:03;;;;;;;28.08;16.13;;;-2.20;99.90;;;;;;5053407;28;20493;-79
2024/01/10 03:43:30;;;;;;;27.73;15.73;;;-3.50;99.90;;;;;;5049623;28;20052;-79
2024/01/10 03:45:57;;;;;;;31.30;15.98;;;-3.50;99.90;;;;;;5051083;28;20052;-80
2024/01/10 03:48:23;;;;;;;28.67;16.58;;;-2.60;99.90;;;;;;5049899;28;20080;-80
2024/01/10 03:50:48;;;;;;;24.55;14.15;;;-2.60;99.90;;;;;;5048551;28;20072;-79
2024/01/10 03:53:14;;;;;;;28.13;15.60;;;-3.50;99.90;;;;;;5050649;28;20057;-80
2024/01/10 03:55:40;;;;;;;25.58;14.98;;;-3.50;99.90;;;;;;5055097;28;20103;-80
2024/01/10 03:58:06;;;;;;;28.17;16.05;;;-3.40;99.90;;;;;;5062076;28;20454;-81
2024/01/10 04:00:31;;;;;;;28.25;15.57;;;-3.50;99.90;;;;;;5050367;28;20041;-79
2024/01/10 04:02:57;;;;;;;25.95;14.80;;;-3.50;99.90;;;;;;5058393;28;20052;-80
2024/01/10 04:05:25;;;;;;;28.08;14.10;;;-3.00;99.90;;;;;;5058271;28;20045;-79
2024/01/10 04:07:51;;;;;;;27.63;15.35;;;-3.50;99.90;;;;;;5055821;28;20047;-79
2024/01/10 04:10:16;;;;;;;28.27;16.75;;;-3.50;99.90;;;;;;5057253;28;20065;-79
2024/01/10 04:12:45;;;;;;;28.08;14.30;;;-3.50;99.90;;;;;;5059615;28;20614;-80
2024/01/10 04:15:12;;;;;;;25.30;14.05;;;-3.50;99.90;;;;;;5060248;28;20113;-81
2024/01/10 04:17:38;;;;;;;22.88;13.15;;;-3.50;99.90;;;;;;5064730;28;20082;-79
2024/01/10 04:20:04;;;;;;;22.92;13.55;;;-3.50;99.90;;;;;;5061809;28;20409;-79
2024/01/10 04:22:30;;;;;;;24.67;13.50;;;-3.50;99.90;;;;;;5053429;28;20053;-79
2024/01/10 04:24:58;;;;;;;24.00;14.30;;;-3.50;99.90;;;;;;5066245;28;20408;-82
2024/01/10 04:27:23;;;;;;;27.08;15.02;;;-3.50;99.90;;;;;;5071074;28;20488;-79
2024/01/10 04:29:49;;;;;;;23.33;12.65;;;-3.60;99.90;;;;;;5057362;28;20083;-79
2024/01/10 04:32:15;;;;;;;27.15;14.63;;;-3.60;99.90;;;;;;5055201;28;20051;-79
2024/01/10 04:34:40;;;;;;;24.88;14.32;;;-3.00;99.90;;;;;;5057909;28;20040;-83
2024/01/10 04:37:09;;;;;;;26.27;14.98;;;-3.60;99.90;;;;;;5061421;28;20044;-83
2024/01/10 04:39:35;;;;;;;25.75;14.52;;;-3.60;99.90;;;;;;5059877;28;20047;-79
2024/01/10 04:42:02;;;;;;;25.33;15.30;;;-3.60;99.90;;;;;;5059099;28;20055;-79
2024/01/10 04:44:30;;;;;;;27.05;14.48;;;-2.60;99.90;;;;;;5068985;28;20052;-83
2024/01/10 04:46:56;;;;;;;26.98;15.55;;;-3.60;99.90;;;;;;5067570;28;20412;-80
2024/01/10 04:49:22;;;;;;;28.27;15.43;;;-3.60;99.90;;;;;;5061945;28;20040;-80
2024/01/10 04:51:48;;;;;;;24.88;13.93;;;-3.40;99.90;;;;;;5067137;28;20483;-79
2024/01/10 04:54:14;;;;;;;27.98;15.18;;;-2.80;99.90;;;;;;5064011;28;20124;-79
2024/01/10 04:56:39;;;;;;;24.75;14.30;;;-3.60;99.90;;;;;;5072508;28;20036;-80
2024/01/10 04:59:06;;;;;;;26.70;14.55;;;-3.60;99.90;;;;;;5047487;28;20314;-79
2024/01/10 05:01:32;;;;;;;24.52;13.18;;;-3.60;99.90;;;;;;5055295;28;20492;-79
2024/01/10 05:03:57;;;;;;;26.65;14.80;;;-3.60;99.90;;;;;;5052072;28;20045;-79
2024/01/10 05:06:23;;;;;;;27.83;14.35;;;-2.40;99.90;;;;;;5042145;28;20402;-79
2024/01/10 05:08:49;;;;;;;25.75;14.77;;;-3.50;99.90;;;;;;5054526;28;20045;-81
2024/01/10 05:11:16;;;;;;;28.10;15.18;;;-3.60;99.90;;;;;;5067288;28;20040;-79
2024/01/10 05:13:42;;;;;;;23.33;13.95;;;-2.20;99.90;;;;;;5055551;28;20098;-79
2024/01/10 05:16:08;;;;;;;29.80;15.18;;;-3.60;99.90;;;;;;5071547;28;20032;-79
2024/01/10 05:18:34;;;;;;;26.58;15.23;;;-3.60;99.90;;;;;;5069539;28;20041;-81
2024/01/10 05:21:03;;;;;;;25.63;14.07;;;-3.70;99.90;;;;;;5053618;28;20504;-80
2024/01/10 05:23:29;;;;;;;27.40;14.93;;;-3.70;99.90;;;;;;5035921;28;20430;-81
2024/01/10 05:25:55;;;;;;;27.58;15.48;;;-3.70;99.90;;;;;;5031308;28;20049;-80
2024/01/10 05:28:21;;;;;;;27.58;15.88;;;-2.90;99.90;;;;;;5063551;28;20054;-79
2024/01/10 05:30:50;;;;;;;29.00;15.98;;;-3.70;99.90;;;;;;5063206;28;20048;-79
2024/01/10 05:33:16;;;;;;;27.10;15.70;;;-3.70;99.90;;;;;;5071816;28;20098;-80
2024/01/10 05:35:42;;;;;;;27.35;15.50;;;-3.10;99.90;;;;;;5041442;28;20045;-79
2024/01/10 05:38:08;;;;;;;28.65;16.30;;;-3.70;99.90;;;;;;5059778;28;20413;-79
2024/01/10 05:40:33;;;;;;;24.95;14.45;;;-3.70;99.90;;;;;;5066510;28;20120;-79
2024/01/10 05:42:59;;;;;;;28.33;15.60;;;-3.70;99.90;;;;;;5060555;28;20145;-79
2024/01/10 05:45:26;;;;;;;28.52;16.02;;;-3.70;99.90;;;;;;5060389;28;20048;-80
2024/01/10 05:47:52;;;;;;;26.88;15.93;;;-3.10;99.90;;;;;;5061721;28;20045;-79
2024/01/10 05:50:18;;;;;;;32.78;16.88;;;-3.70;99.90;;;;;;5059053;28;20090;-79
2024/01/10 05:52:43;;;;;;;29.70;15.88;;;-3.70;99.90;;;;;;5054278;28;20585;-83
2024/01/10 05:55:09;;;;;;;26.92;15.68;;;-3.70;99.90;;;;;;5055591;28;20049;-79
2024/01/10 05:57:36;;;;;;;28.33;15.50;;;-3.70;99.90;;;;;;5060848;28;20043;-79
2024/01/10 06:00:03;;;;;;;29.23;15.23;;;-3.70;99.90;;;;;;5054356;28;20052;-81
2024/01/10 06:02:28;;;;;;;29.63;16.27;;;-3.70;99.90;;;;;;5055355;28;20530;-80
2024/01/10 06:04:54;;;;;;;31.17;15.27;;;-3.70;99.90;;;;;;5060011;28;20048;-81
2024/01/10 06:07:20;;;;;;;29.40;15.77;;;-3.70;99.90;;;;;;5053544;28;20048;-80
2024/01/10 06:09:47;;;;;;;26.98;15.85;;;-3.70;99.90;;;;;;5051939;28;20041;-83
2024/01/10 06:12:13;;;;;;;27.73;15.15;;;-3.70;99.90;;;;;;5053090;28;20084;-80
2024/01/10 06:14:39;;;;;;;29.85;16.48;;;-3.60;99.90;;;;;;5065171;28;20362;-80
2024/01/10 06:17:05;;;;;;;29.60;16.80;;;-3.70;99.90;;;;;;5058368;28;20032;-81
2024/01/10 06:19:31;;;;;;;32.05;16.15;;;-3.70;99.90;;;;;;5054746;28;20047;-81
2024/01/10 06:21:57;;;;;;;27.48;16.20;;;-3.70;99.90;;;;;;5059226;28;20427;-80
2024/01/10 06:24:23;;;;;;;36.47;16.90;;;-3.70;99.90;;;;;;5067510;28;20472;-80
2024/01/10 06:26:49;;;;;;;29.67;15.93;;;-2.90;99.90;;;;;;5066354;28;20091;-81
2024/01/10 06:29:15;;;;;;;29.30;15.45;;;-2.40;99.90;;;;;;5058164;28;20060;-80
2024/01/10 06:31:41;;;;;;;27.48;16.17;;;-3.70;99.90;;;;;;5068894;28;20095;-80
2024/01/10 06:34:08;;;;;;;34.38;15.77;;;-3.80;99.90;;;;;;5054591;28;20493;-79
2024/01/10 06:36:34;;;;;;;26.90;15.75;;;-3.80;99.90;;;;;;5066760;28;20052;-80
2024/01/10 06:39:01;;;;;;;34.53;17.67;;;-3.80;99.90;;;;;;5057850;28;20399;-80
2024/01/10 06:41:27;;;;;;;28.58;16.60;;;-3.80;99.90;;;;;;5058166;28;20044;-80
2024/01/10 06:43:52;;;;;;;29.10;16.15;;;-3.80;99.90;;;;;;5039099;28;20040;-80
2024/01/10 06:46:18;;;;;;;34.75;18.65;;;-3.80;99.90;;;;;;5053915;28;20562;-78
2024/01/10 06:48:44;;;;;;;30.88;17.92;;;-3.10;99.90;;;;;;5063743;28;20056;-81
2024/01/10 06:51:13;;;;;;;33.45;17.50;;;-3.70;99.90;;;;;;5053317;28;20032;-79
2024/01/10 06:53:40;;;;;;;25.67;15.55;;;-3.70;99.90;;;;;;5053206;28;20484;-79
2024/01/10 06:56:07;;;;;;;31.45;17.25;;;-3.80;99.90;;;;;;5067512;28;20109;-79
2024/01/10 06:58:34;;;;;;;30.40;17.10;;;-2.90;99.90;;;;;;5043786;28;20049;-81
2024/01/10 07:01:00;;;;;;;29.58;15.80;;;-3.80;99.90;;;;;;5036746;28;20048;-82
2024/01/10 07:03:26;;;;;;;32.53;18.00;;;-3.70;99.90;;;;;;5063501;28;20440;-79
2024/01/10 07:05:52;;;;;;;30.23;16.38;;;-3.50;99.90;;;;;;5058792;28;20048;-81
2024/01/10 07:08:18;;;;;;;29.48;16.60;;;-3.80;99.90;;;;;;5064468;28;20388;-80
2024/01/10 07:10:44;;;;;;;27.35;16.80;;;-3.80;99.90;;;;;;5036345;28;20148;-79
2024/01/10 07:13:10;;;;;;;29.60;16.58;;;-2.40;99.90;;;;;;5054263;28;20040;-80
2024/01/10 07:15:37;;;;;;;32.03;16.50;;;-3.30;99.90;;;;;;5054650;28;20102;-81
2024/01/10 07:18:03;;;;;;;30.70;16.98;;;-3.80;99.90;;;;;;5057561;28;20052;-82
2024/01/10 07:20:32;;;;;;;28.10;16.90;;;-3.80;99.90;;;;;;5057393;28;20136;-81
2024/01/10 07:22:59;;;;;;;29.08;17.13;;;-3.60;99.90;;;;;;5072067;28;20041;-79
2024/01/10 07:25:25;;;;;;;27.90;15.63;;;-3.80;99.90;;;;;;5054223;28;20064;-79
2024/01/10 07:27:54;;;;;;;27.75;16.35;;;-3.80;99.90;;;;;;5052770;28;20056;-79
2024/01/10 07:30:20;;;;;;;29.92;15.77;;;-2.60;99.90;;;;;;5054447;28;20404;-78
2024/01/10 07:32:46;;;;;;;29.50;15.32;;;-3.80;99.90;;;;;;5073834;28;20044;-78
2024/01/10 07:35:15;;;;;;;33.35;18.33;;;-3.80;99.90;;;;;;5058578;28;20044;-79
2024/01/10 07:37:42;;;;;;;33.35;18.17;;;-3.80;99.90;;;;;;5068721;28;20048;-78
2024/01/10 07:40:10;;;;;;;30.67;16.27;;;-3.70;99.90;;;;;;5071592;28;20178;-78
2024/01/10 07:42:36;;;;;;;37.35;17.90;;;-3.80;99.90;;;;;;5066081;28;20045;-79
2024/01/10 07:45:05;;;;;;;32.60;15.82;;;-3.80;99.90;;;;;;5063716;28;20045;-79
2024/01/10 07:47:32;;;;;;;26.67;15.23;;;-3.80;99.90;;;;;;5068823;28;20421;-78
2024/01/10 07:50:01;;;;;;;28.67;15.63;;;-3.80;99.90;;;;;;5077844;28;20052;-78
2024/01/10 07:52:26;;;;;;;28.30;15.75;;;-2.70;99.90;;;;;;5071928;28;20059;-80
2024/01/10 07:54:52;;;;;;;29.75;15.18;;;-3.80;99.90;;;;;;5061979;28;20045;-78
2024/01/10 07:57:19;;;;;;;29.90;15.07;;;-3.80;99.90;;;;;;5063498;28;20041;-80
2024/01/10 07:59:47;;;;;;;30.73;15.10;;;-3.80;99.90;;;;;;5062718;28;20053;-83
2024/01/10 08:02:13;;;;;;;33.95;16.48;;;-3.80;99.90;;;;;;5073154;28;20048;-81
2024/01/10 08:04:38;;;;;;;32.00;16.13;;;-3.80;99.90;;;;;;5071668;28;20076;-83
2024/01/10 08:07:04;;;;;;;33.65;16.75;;;-3.80;99.90;;;;;;5068124;28;20049;-83
2024/01/10 08:09:30;;;;;;;31.10;15.40;;;-3.80;99.90;;;;;;5072923;28;20049;-84
2024/01/10 08:11:55;;;;;;;28.55;16.10;;;-3.80;99.90;;;;;;5058157;28;20052;-80
2024/01/10 08:14:21;;;;;;;28.33;15.13;;;-2.90;99.90;;;;;;5057250;28;20045;-80
2024/01/10 08:16:47;;;;;;;32.08;15.77;;;-3.90;99.90;;;;;;5062513;28;20040;-87
2024/01/10 08:19:13;;;;;;;29.85;14.82;;;-3.30;99.90;;;;;;5058240;28;20094;-86
2024/01/10 08:21:41;;;;;;;31.00;15.75;;;-3.90;99.90;;;;;;5070598;28;20061;-84
2024/01/10 08:24:07;;;;;;;50.22;17.75;;;-3.80;99.90;;;;;;5070395;28;20118;-85
2024/01/10 08:26:33;;;;;;;32.92;15.70;;;-3.90;99.90;;;;;;5073734;28;20037;-79
2024/01/10 08:28:58;;;;;;;35.50;15.80;;;-3.80;99.90;;;;;;5068877;28;20045;-82
2024/01/10 08:31:26;;;;;;;31.70;14.88;;;-3.80;99.90;;;;;;5056832;28;20041;-82
2024/01/10 08:33:52;;;;;;;34.08;15.60;;;-3.80;99.90;;;;;;5055777;28;20048;-83
2024/01/10 08:36:19;;;;;;;33.72;15.32;;;-3.80;99.90;;;;;;5069699;28;20459;-84
2024/01/10 08:38:45;;;;;;;34.90;14.75;;;-3.20;99.90;;;;;;5055296;28;20040;-84
2024/01/10 08:41:12;;;;;;;37.22;16.05;;;-2.90;99.90;;;;;;5054400;28;20049;-85
2024/01/10 08:43:38;;;;;;;33.60;15.80;;;-3.70;99.90;;;;;;5037919;28;20052;-80
2024/01/10 08:46:04;;;;;;;31.15;14.85;;;-2.70;99.90;;;;;;5055796;28;20041;-80
2024/01/10 08:48:29;;;;;;;35.95;14.02;;;-3.70;99.90;;;;;;5055857;28;20048;-81
2024/01/10 08:50:56;;;;;;;33.25;14.40;;;-3.70;99.90;;;;;;5076313;28;20650;-80
2024/01/10 08:53:22;;;;;;;33.88;13.88;;;-3.60;99.90;;;;;;5064914;28;20052;-81
2024/01/10 08:55:48;;;;;;;29.98;13.02;;;-3.60;99.90;;;;;;5037463;28;20060;-80
2024/01/10 08:58:14;;;;;;;32.83;13.68;;;-2.80;99.90;;;;;;5056175;28;20485;-80
2024/01/10 09:00:39;;;;;;;32.65;13.02;;;-3.60;99.90;;;;;;5056257;28;20055;-80
2024/01/10 09:03:05;;;;;;;29.90;13.10;;;-2.40;99.90;;;;;;5063535;28;20032;-81
2024/01/10 09:05:31;;;;;;;27.63;12.35;;;-3.60;99.90;;;;;;5075761;28;20046;-82
2024/01/10 09:07:56;;;;;;;29.15;12.75;;;-3.60;99.90;;;;;;5075629;28;20040;-82
2024/01/10 09:10:23;;;;;;;30.98;13.30;;;-3.60;99.90;;;;;;5065785;28;20045;-81
2024/01/10 09:12:49;;;;;;;29.35;12.15;;;-3.60;99.90;;;;;;5065899;28;20642;-81
2024/01/10 09:15:15;;;;;;;29.60;13.60;;;-3.50;99.90;;;;;;5068562;28;20055;-80
2024/01/10 09:17:44;;;;;;;33.53;13.18;;;-3.50;99.90;;;;;;5055407;28;20041;-81
2024/01/10 09:20:11;;;;;;;26.95;13.10;;;-2.60;99.90;;;;;;5055172;28;20060;-79
2024/01/10 09:22:37;;;;;;;31.08;12.90;;;-3.50;99.90;;;;;;5068551;28;20080;-80
2024/01/10 09:25:05;;;;;;;31.33;12.38;;;-3.50;99.90;;;;;;5075129;28;20080;-78
2024/01/10 09:27:32;;;;;;;33.38;14.13;;;-3.50;99.90;;;;;;5074669;28;20102;-84
2024/01/10 09:29:57;;;;;;;32.17;12.90;;;-3.50;99.90;;;;;;5074687;28;20047;-80
2024/01/10 09:32:23;;;;;;;31.25;14.05;;;-3.50;99.90;;;;;;5069193;28;20045;-82
2024/01/10 09:34:49;;;;;;;30.55;13.10;;;-3.40;99.90;;;;;;5062478;28;20045;-82
2024/01/10 09:37:14;;;;;;;29.27;12.23;;;-3.40;99.90;;;;;;5074838;28;20093;-81
2024/01/10 09:39:40;;;;;;;28.05;12.18;;;-2.90;99.90;;;;;;5063002;28;20124;-81
2024/01/10 09:42:06;;;;;;;30.17;11.70;;;-2.70;99.90;;;;;;5054458;28;20049;-82
2024/01/10 09:44:33;;;;;;;26.40;11.27;;;-3.40;99.90;;;;;;5059389;28;20049;-80
2024/01/10 09:47:00;;;;;;;26.15;11.57;;;-3.20;99.90;;;;;;5062411;28;20041;-80
2024/01/10 09:49:27;;;;;;;29.05;11.60;;;-3.30;99.90;;;;;;5072535;28;20472;-80
2024/01/10 09:52:01;;;;;;;30.00;10.98;;;-3.30;99.90;;;;;;5070633;28;20041;-81
2024/01/10 09:54:30;;;;;;;24.63;11.15;;;-3.00;99.90;;;;;;5067583;28;20572;-79
2024/01/10 09:56:57;;;;;;;25.92;10.60;;;-3.30;99.90;;;;;;5059757;28;20616;-79
2024/01/10 09:59:23;;;;;;;29.33;12.57;;;-2.50;99.90;;;;;;5060221;28;20045;-79
2024/01/10 10:01:51;;;;;;;28.02;11.38;;;-3.20;99.90;;;;;;5064681;28;20198;-79
2024/01/10 10:04:19;;;;;;;24.88;10.50;;;-3.20;99.90;;;;;;5065283;28;20045;-79
2024/01/10 10:06:45;;;;;;;30.45;11.50;;;-1.90;99.90;;;;;;5057018;28;20048;-79
2024/01/10 10:09:12;;;;;;;29.92;11.35;;;-2.10;99.90;;;;;;5061948;28;20447;-81
2024/01/10 10:11:38;;;;;;;29.45;11.20;;;;;;;;;;5060877;28;20048;-79
2024/01/10 10:14:18;;;;;;;25.65;10.10;;;-3.10;99.90;;;;;;5054439;28;20132;-81
2024/01/10 10:16:44;;;;;;;24.65;10.20;;;-3.10;99.90;;;;;;5058265;28;20110;-80
2024/01/10 10:19:11;;;;;;;21.58;9.48;;;-3.10;99.90;;;;;;5053935;28;20083;-79
2024/01/10 10:21:38;;;;;;;23.27;9.27;;;-3.10;99.90;;;;;;5061077;28;20077;-79
2024/01/10 10:24:04;;;;;;;22.00;8.60;;;-2.80;99.90;;;;;;5066101;28;20037;-79
2024/01/10 10:26:32;;;;;;;23.95;9.40;;;-3.00;99.90;;;;;;5053998;28;20370;-80
2024/01/10 10:28:58;;;;;;;27.92;10.02;;;-1.80;99.90;;;;;;5066181;28;20400;-79
2024/01/10 10:31:24;;;;;;;25.33;10.07;;;-2.90;99.90;;;;;;5037567;28;20054;-79
2024/01/10 10:33:51;;;;;;;24.83;10.15;;;-2.80;99.90;;;;;;5066917;28;20056;-80
2024/01/10 10:36:17;;;;;;;25.20;9.98;;;-2.20;99.90;;;;;;5039369;28;20943;-79
2024/01/10 10:38:43;;;;;;;27.05;10.38;;;-2.80;99.90;;;;;;5070445;28;20167;-80
2024/01/10 10:41:11;;;;;;;27.15;10.73;;;-1.40;99.90;;;;;;5062380;28;20124;-79
2024/01/10 10:43:38;;;;;;;24.10;9.30;;;-2.70;99.90;;;;;;5067251;28;20040;-79
2024/01/10 10:46:09;;;;;;;24.83;9.88;;;-2.50;99.90;;;;;;5056800;28;20066;-79
2024/01/10 10:48:36;;;;;;;24.98;10.45;;;-2.60;99.90;;;;;;5058638;28;20121;-80
2024/01/10 10:51:06;;;;;;;23.52;9.75;;;-2.50;99.90;;;;;;5051964;28;20099;-79
2024/01/10 10:53:36;;;;;;;26.00;11.55;;;-2.50;99.90;;;;;;5051720;28;20049;-79
2024/01/10 10:56:07;;;;;;;23.05;9.10;;;-2.40;99.90;;;;;;5053164;28;20496;-79
2024/01/10 10:58:50;;;;;;;25.20;10.75;;;-2.40;99.90;;;;;;5070099;28;20052;-79
2024/01/10 11:01:16;;;;;;;20.95;10.13;;;-1.30;99.90;;;;;;5072302;28;20042;-80
2024/01/10 11:03:47;;;;;;;23.77;9.63;;;-2.20;99.90;;;;;;5063883;28;20048;-79
2024/01/10 11:06:12;;;;;;;21.65;10.13;;;-2.10;99.90;;;;;;5056538;28;20049;-79
2024/01/10 11:08:46;;;;;;;20.15;8.85;;;-0.40;99.90;;;;;;5071071;28;20642;-80
2024/01/10 11:11:21;;;;;;;28.48;10.52;;;-0.70;99.90;;;;;;5061090;28;20404;-80
2024/01/10 11:13:54;;;;;;;22.70;10.50;;;-1.90;99.90;;;;;;5056929;28;20437;-80
2024/01/10 11:16:44;;;;;;;22.42;8.63;;;-1.80;99.90;;;;;;5067701;28;20059;-80
2024/01/10 11:19:28;;;;;;;23.77;10.13;;;-1.70;99.90;;;;;;5064516;28;20060;-80
2024/01/10 11:22:28;;;;;;;21.90;9.37;;;-1.60;99.90;;;;;;5067467;28;20053;-80
2024/01/10 11:24:55;;;;;;;23.27;8.95;;;-1.60;99.90;;;;;;5006239;28;20061;-80
2024/01/10 11:27:21;;;;;;;21.13;8.32;;;-1.50;99.90;;;;;;5065508;28;20109;-80
2024/01/10 11:29:49;;;;;;;22.90;8.75;;;-1.40;99.90;;;;;;5074058;28;20048;-80
2024/01/10 11:32:16;;;;;;;20.33;8.88;;;-1.30;99.90;;;;;;5072743;28;20040;-79
2024/01/10 11:34:58;;;;;;;20.33;8.25;;;-1.20;99.90;;;;;;5073977;28;20083;-80
2024/01/10 11:37:28;;;;;;;21.92;8.73;;;-1.10;99.90;;;;;;5072775;28;20090;-80
2024/01/10 11:39:53;;;;;;;21.45;9.77;;;-0.10;99.90;;;;;;5063019;28;20136;-80
2024/01/10 11:42:42;;;;;;;22.15;9.88;;;0.20;99.90;;;;;;5068994;28;20135;-80
2024/01/10 11:45:08;;;;;;;21.25;9.38;;;-0.80;99.90;;;;;;5068393;28;20045;-80
2024/01/10 11:47:34;;;;;;;17.48;7.82;;;-0.60;99.90;;;;;;5067780;28;20097;-79
2024/01/10 11:50:02;;;;;;;19.45;8.23;;;-0.60;99.90;;;;;;5072857;28;20048;-79
2024/01/10 11:52:36;;;;;;;18.95;8.55;;;-0.50;99.90;;;;;;5056205;28;20087;-79
2024/01/10 11:55:02;;;;;;;33.28;9.48;;;-0.50;99.90;;;;;;5053486;28;20045;-81
2024/01/10 11:57:28;;;;;;;21.33;8.32;;;-0.40;99.90;;;;;;5053144;28;20131;-80
2024/01/10 11:59:55;;;;;;;20.00;8.15;;;-0.30;99.90;;;;;;5057267;28;20041;-80
2024/01/10 12:02:26;;;;;;;19.20;8.77;;;-0.20;99.90;;;;;;5071804;28;20048;-80
2024/01/10 12:04:53;;;;;;;21.08;8.63;;;0.10;99.90;;;;;;5063008;28;20585;-80
2024/01/10 12:07:19;;;;;;;22.05;9.38;;;-0.10;99.90;;;;;;5064154;28;20045;-80
2024/01/10 12:09:48;;;;;;;18.00;8.48;;;0.30;99.90;;;;;;5055359;28;20071;-80
2024/01/10 12:12:14;;;;;;;16.73;8.10;;;0.10;99.90;;;;;;5053671;28;20472;-81
2024/01/10 12:14:41;;;;;;;18.90;8.27;;;0.20;99.90;;;;;;5052812;28;20049;-80
2024/01/10 12:17:08;;;;;;;18.85;9.05;;;0.20;99.90;;;;;;5052653;28;20049;-82
2024/01/10 12:19:35;;;;;;;17.98;8.93;;;0.30;99.90;;;;;;5052332;28;20736;-80
2024/01/10 12:22:01;;;;;;;18.58;8.13;;;0.30;99.90;;;;;;5052708;28;20057;-80
2024/01/10 12:24:30;;;;;;;21.02;8.60;;;1.20;99.90;;;;;;5051878;28;20057;-79
2024/01/10 12:26:56;;;;;;;17.58;8.23;;;0.40;99.90;;;;;;5058698;28;20115;-80